Time;durP1;ratioP1;P1;durP2;ratioP2;P2;SDS_P1;SDS_P2;PMS_P1;PMS_P2;Temp;Humidity;BMP_temperature;BMP_pressure;BME280_temperature;BME280_humidity;BME280_pressure;Samples;Min_cycle;Max_cycle;Signal;HPM_P1;HPM_P2
2022/12/22 03:27:23;;;;;;;87.60;41.78;;;;;;;7.86;100.00;67642.59;4974447;28;20121;-84
2022/12/22 03:29:48;;;;;;;93.80;44.95;;;;;;;;;;4981336;28;20473;-84
2022/12/22 03:32:14;;;;;;;95.63;48.27;;;;;;;7.86;100.00;67642.59;4984735;28;20116;-83
2022/12/22 03:34:39;;;;;;;109.80;53.50;;;;;;;7.87;100.00;67643.72;4982080;28;20273;-83
2022/12/22 03:37:04;;;;;;;106.35;50.53;;;;;;;7.87;100.00;67641.06;4979068;28;20120;-83
2022/12/22 03:39:30;;;;;;;101.25;48.25;;;;;;;7.88;100.00;67644.28;4981062;28;20038;-84
2022/12/22 03:47:22;;;;;;;126.78;52.67;;;;;;;;;;4986436;28;20069;-83
2022/12/22 03:49:47;;;;;;;125.40;57.83;;;;;;;7.89;100.00;67650.72;4987794;28;20562;-83
2022/12/22 03:52:13;;;;;;;115.65;47.58;;;;;;;7.91;100.00;67645.63;4986404;28;20426;-84
2022/12/22 03:54:38;;;;;;;126.80;55.38;;;;;;;7.93;100.00;67649.41;4989721;28;20621;-85
2022/12/22 03:57:03;;;;;;;137.10;57.55;;;;;;;;;;4992837;28;20495;-84
2022/12/22 03:59:29;;;;;;;125.45;51.47;;;;;;;7.92;100.00;67648.84;4989842;28;20049;-84
2022/12/22 04:01:54;;;;;;;121.13;47.30;;;;;;;7.91;100.00;67645.63;4983304;28;20034;-84
2022/12/22 04:04:22;;;;;;;128.85;50.58;;;;;;;7.91;100.00;67647.69;4986175;28;20038;-85
2022/12/22 04:06:47;;;;;;;144.35;56.30;;;;;;;7.93;100.00;67649.41;4986499;28;20138;-83
2022/12/22 04:09:13;;;;;;;137.20;58.03;;;;;;;7.93;100.00;67649.41;4972206;28;20113;-85
2022/12/22 04:14:23;;;;;;;159.98;57.40;;;;;;;7.91;100.00;67642.38;4985774;28;20042;-83
2022/12/22 04:16:48;;;;;;;151.23;53.92;;;;;;;;;;4991724;28;20046;-84
2022/12/22 04:19:14;;;;;;;136.65;50.28;;;;;;;7.91;100.00;67648.28;4983324;28;20043;-84
2022/12/22 04:21:41;;;;;;;147.38;51.65;;;;;;;7.90;100.00;67644.47;4984067;28;20054;-83
2022/12/22 04:24:07;;;;;;;173.88;53.05;;;;;;;7.91;100.00;67648.28;4989968;28;20095;-84
2022/12/22 04:26:33;;;;;;;174.48;56.83;;;;;;;7.90;100.00;67647.13;4979214;28;20042;-85
2022/12/22 04:28:58;;;;;;;166.18;50.00;;;;;;;7.92;100.00;67648.84;4984328;28;20053;-85
2022/12/22 04:31:23;;;;;;;172.82;53.20;;;;;;;7.91;100.00;67647.69;4987765;28;20414;-83
2022/12/22 04:33:49;;;;;;;178.77;55.15;;;;;;;7.90;100.00;67641.81;4987193;28;20038;-83
2022/12/22 04:36:15;;;;;;;198.10;60.40;;;;;;;7.90;100.00;67643.91;4988539;28;20465;-85
2022/12/22 04:38:40;;;;;;;209.90;56.40;;;;;;;7.89;100.00;67645.44;4990527;28;20510;-83
2022/12/22 04:41:06;;;;;;;199.77;56.47;;;;;;;7.87;100.00;67643.72;4991355;28;20042;-83
2022/12/22 04:43:32;;;;;;;206.93;56.67;;;;;;;;;;4991283;28;20506;-84
2022/12/22 04:45:57;;;;;;;192.07;51.40;;;;;;;7.87;100.00;67638.44;5000673;28;20046;-85
2022/12/22 04:48:24;;;;;;;196.63;52.83;;;;;;;7.88;100.00;67641.63;5006298;28;20053;-84
2022/12/22 04:50:54;;;;;;;229.75;58.75;;;;;;;;;;5002093;28;20042;-86
2022/12/22 04:53:19;;;;;;;;;;;;;;;7.88;100.00;67644.28;4996008;28;20054;-87
2022/12/22 04:55:59;;;;;;;195.57;50.15;;;;;;;7.81;100.00;67631.63;4996470;28;19914;-85
2022/12/22 04:58:24;;;;;;;175.60;45.83;;;;;;;;;;4987276;28;20034;-84
2022/12/22 05:00:50;;;;;;;159.50;42.97;;;;;;;7.86;100.00;67639.94;4985403;28;20048;-85
2022/12/22 05:03:16;;;;;;;180.60;49.22;;;;;;;7.86;100.00;67637.31;4980678;28;20046;-85
2022/12/22 05:05:41;;;;;;;166.35;48.80;;;;;;;7.86;100.00;67647.91;4985970;28;20114;-84
2022/12/22 05:08:06;;;;;;;170.25;46.88;;;;;;;7.87;100.00;67643.16;4979622;28;20042;-83
2022/12/22 05:10:32;;;;;;;159.75;45.58;;;;;;;7.87;100.00;67641.06;4988152;28;20555;-85
2022/12/22 05:12:58;;;;;;;164.00;43.88;;;;;;;7.88;100.00;67644.28;4990707;28;20038;-86
2022/12/22 05:15:31;;;;;;;169.75;47.53;;;;;;;7.89;100.00;67646.00;4989485;28;20418;-86
2022/12/22 05:17:57;;;;;;;182.27;47.95;;;;;;;;;;4982921;28;20053;-85
2022/12/22 05:20:24;;;;;;;197.93;54.15;;;;;;;7.88;100.00;67642.22;4986188;28;20414;-85
2022/12/22 05:22:49;;;;;;;169.30;43.08;;;;;;;7.90;100.00;67644.47;4978672;28;20055;-85
2022/12/22 05:25:15;;;;;;;186.55;52.40;;;;;;;7.91;100.00;67642.38;4990480;28;20057;-85
2022/12/22 05:27:41;;;;;;;187.02;48.13;;;;;;;;;;4979029;28;20058;-85
2022/12/22 05:30:07;;;;;;;193.73;49.25;;;;;;;7.91;100.00;67648.28;4983636;28;20525;-85
2022/12/22 05:32:33;;;;;;;161.18;40.60;;;;;;;7.91;100.00;67648.28;4981316;28;20050;-85
2022/12/22 05:34:58;;;;;;;206.88;49.83;;;;;;;7.89;100.00;67643.34;5000307;28;20039;-83
2022/12/22 05:37:24;;;;;;;195.52;49.65;;;;;;;7.88;100.00;67644.88;4978405;28;20050;-86
2022/12/22 05:39:49;;;;;;;196.50;47.15;;;;;;;7.88;100.00;67642.22;5009783;28;20045;-85
2022/12/22 05:42:34;;;;;;;170.82;41.58;;;;;;;7.90;100.00;67644.47;4996189;28;20041;-85
2022/12/22 05:45:17;;;;;;;187.20;46.55;;;;;;;7.91;100.00;67647.69;4968586;28;20086;-86
2022/12/22 05:47:44;;;;;;;201.43;48.47;;;;;;;7.89;100.00;67646.00;4979126;28;20042;-86
2022/12/22 05:50:11;;;;;;;189.57;48.00;;;;;;;7.89;100.00;67646.00;4984088;28;20034;-85
2022/12/22 05:52:37;;;;;;;180.70;46.85;;;;;;;7.90;100.00;67647.13;4982319;28;20050;-86
2022/12/22 05:55:03;;;;;;;189.80;48.58;;;;;;;7.93;100.00;67649.41;4984734;28;20154;-86
2022/12/22 05:57:28;;;;;;;189.60;46.78;;;;;;;7.94;100.00;67651.09;4983518;28;20038;-84
2022/12/22 05:59:54;;;;;;;196.57;48.28;;;;;;;7.95;100.00;67649.00;4997389;28;20042;-86
2022/12/22 06:02:19;;;;;;;191.65;44.72;;;;;;;7.95;100.00;67651.66;4987205;28;20042;-86
2022/12/22 06:04:45;;;;;;;204.38;47.63;;;;;;;7.93;100.00;67647.31;4989105;28;20038;-86
2022/12/22 06:07:10;;;;;;;220.15;50.88;;;;;;;7.94;100.00;67650.53;4978639;28;20489;-84
2022/12/22 06:09:35;;;;;;;221.90;50.33;;;;;;;7.95;100.00;67652.22;4991677;28;20041;-86
2022/12/22 06:12:01;;;;;;;240.00;56.75;;;;;;;7.95;100.00;67656.97;4989483;28;20046;-86
2022/12/22 06:14:26;;;;;;;212.75;54.55;;;;;;;7.95;100.00;67651.66;4988048;28;20085;-86
2022/12/22 06:16:52;;;;;;;224.13;51.15;;;;;;;7.95;100.00;67652.22;4988213;28;20054;-85
2022/12/22 06:19:17;;;;;;;281.05;59.13;;;;;;;7.95;100.00;67652.22;4979228;28;20125;-85
2022/12/22 06:21:43;;;;;;;266.83;58.83;;;;;;;7.94;100.00;67650.53;4998042;28;20050;-84
2022/12/22 06:24:08;;;;;;;266.65;59.05;;;;;;;7.94;100.00;67648.44;4993400;28;20069;-84
2022/12/22 06:26:33;;;;;;;256.77;60.20;;;;;;;7.95;100.00;67649.56;4989920;28;20638;-85
2022/12/22 06:28:59;;;;;;;253.70;55.25;;;;;;;7.97;100.00;67659.22;4999839;28;20096;-84
2022/12/22 06:31:24;;;;;;;262.08;57.25;;;;;;;;;;4991869;28;20038;-84
2022/12/22 06:33:49;;;;;;;286.27;55.38;;;;;;;7.92;100.00;67646.19;4989631;28;20076;-84
2022/12/22 06:36:15;;;;;;;311.02;60.92;;;;;;;7.91;100.00;67648.28;5009608;28;20037;-84
2022/12/22 06:38:40;;;;;;;323.05;55.85;;;;;;;7.94;100.00;67650.53;4971729;28;20417;-83
2022/12/22 06:41:05;;;;;;;431.70;71.60;;;;;;;7.94;100.00;67650.53;4972559;28;20086;-85
2022/12/22 06:43:31;;;;;;;309.45;63.30;;;;;;;7.92;100.00;67646.19;4976796;28;20121;-84
2022/12/22 06:45:56;;;;;;;322.40;57.70;;;;;;;7.93;100.00;67649.97;4981840;28;20053;-84
2022/12/22 06:48:22;;;;;;;320.00;60.60;;;;;;;7.93;100.00;67649.41;4983141;28;20045;-84
2022/12/22 06:50:48;;;;;;;342.77;62.67;;;;;;;7.91;100.00;67647.69;4976151;28;20034;-85
2022/12/22 06:53:13;;;;;;;403.73;67.70;;;;;;;;;;4976856;28;20406;-85
2022/12/22 06:55:38;;;;;;;370.92;66.75;;;;;;;7.91;100.00;67648.28;4975194;28;20129;-84
2022/12/22 06:58:04;;;;;;;429.08;60.72;;;;;;;7.89;100.00;67646.00;4971598;28;20034;-85
2022/12/22 07:00:30;;;;;;;463.83;64.57;;;;;;;7.87;100.00;67643.72;4982368;28;20042;-84
2022/12/22 07:02:56;;;;;;;426.60;69.90;;;;;;;7.90;100.00;67646.56;4971841;28;20106;-84
2022/12/22 07:05:22;;;;;;;444.42;73.43;;;;;;;;;;4975800;28;20182;-84
2022/12/22 07:07:48;;;;;;;456.88;79.82;;;;;;;7.88;100.00;67642.22;4984010;28;20078;-83
2022/12/22 07:10:13;;;;;;;426.48;70.63;;;;;;;7.87;100.00;67640.50;4975434;28;20197;-83
2022/12/22 07:12:39;;;;;;;415.23;64.18;;;;;;;7.88;100.00;67639.56;5002922;28;20060;-84
2022/12/22 07:15:05;;;;;;;426.55;64.22;;;;;;;7.87;100.00;67643.72;4988771;28;20038;-84
2022/12/22 07:17:30;;;;;;;393.42;66.43;;;;;;;7.89;100.00;67646.00;4988033;28;20043;-84
2022/12/22 07:19:55;;;;;;;366.80;56.25;;;;;;;;;;4988855;28;20054;-84
2022/12/22 07:22:21;;;;;;;420.38;66.38;;;;;;;7.91;100.00;67648.28;4987968;28;20046;-84
2022/12/22 07:24:46;;;;;;;477.40;74.40;;;;;;;7.89;100.00;67651.28;4982922;28;20047;-84
2022/12/22 07:27:11;;;;;;;452.38;68.15;;;;;;;7.89;100.00;67646.00;4977254;28;20042;-84
2022/12/22 07:29:39;;;;;;;490.88;82.20;;;;;;;7.88;100.00;67642.22;4966873;28;20043;-84
2022/12/22 07:32:05;;;;;;;484.10;70.97;;;;;;;7.87;100.00;67638.44;4974205;28;20044;-84
2022/12/22 07:34:30;;;;;;;443.05;69.88;;;;;;;7.88;100.00;67644.88;4978284;28;20134;-84
2022/12/22 07:36:55;;;;;;;487.42;79.40;;;;;;;7.89;100.00;67645.44;4985814;28;20121;-83
2022/12/22 07:39:21;;;;;;;393.63;60.75;;;;;;;7.88;100.00;67644.28;4976459;28;20412;-84
2022/12/22 07:44:30;;;;;;;324.55;52.47;;;;;;;7.88;100.00;67639.56;4968637;28;20042;-83
2022/12/22 07:46:55;;;;;;;419.73;73.78;;;;;;;7.88;100.00;67644.88;4970600;28;20042;-84
2022/12/22 07:52:04;;;;;;;316.83;67.90;;;;;;;7.88;100.00;67642.22;5001923;28;20049;-84
2022/12/22 07:54:30;;;;;;;381.55;68.68;;;;;;;7.90;100.00;67646.56;4979902;28;20046;-84
2022/12/22 07:56:55;;;;;;;281.38;58.45;;;;;;;7.89;100.00;67642.78;4985847;28;20035;-85
2022/12/22 07:59:21;;;;;;;293.40;57.78;;;;;;;7.90;100.00;67644.47;4977863;28;20066;-84
2022/12/22 08:01:46;;;;;;;261.05;46.63;;;;;;;7.90;100.00;67646.56;4976677;28;20478;-84
2022/12/22 08:04:13;;;;;;;240.23;49.38;;;;;;;7.91;100.00;67652.97;4982240;28;20049;-85
2022/12/22 08:06:38;;;;;;;212.57;47.08;;;;;;;;;;4983427;28;20057;-84
2022/12/22 08:09:05;;;;;;;238.38;61.72;;;;;;;7.95;100.00;67646.38;4988070;28;20046;-84
2022/12/22 08:11:30;;;;;;;193.60;48.28;;;;;;;7.94;100.00;67655.81;4986531;28;20049;-85
2022/12/22 08:13:56;;;;;;;211.20;48.75;;;;;;;;;;4981471;28;20034;-84
2022/12/22 08:16:21;;;;;;;165.02;45.10;;;;;;;7.95;100.00;67651.66;4986132;28;20038;-84
2022/12/22 08:18:48;;;;;;;194.18;53.95;;;;;;;7.94;100.00;67645.22;4975762;28;20043;-84
2022/12/22 08:21:14;;;;;;;170.85;48.03;;;;;;;7.95;100.00;67651.66;4979589;28;20038;-85
2022/12/22 08:23:39;;;;;;;185.40;49.85;;;;;;;7.95;100.00;67652.22;4987370;28;20042;-84
2022/12/22 08:26:07;;;;;;;179.88;52.20;;;;;;;7.99;100.00;67662.03;4984925;28;20046;-84
2022/12/22 08:28:37;;;;;;;159.65;44.25;;;;;;;7.95;100.00;67652.22;4987198;28;20045;-84
2022/12/22 08:31:03;;;;;;;174.82;43.13;;;;;;;7.97;100.00;67654.50;4976720;28;20530;-85
2022/12/22 08:33:28;;;;;;;136.30;33.17;;;;;;;7.98;100.00;67652.41;4989868;28;20046;-85
2022/12/22 08:35:55;;;;;;;155.05;39.05;;;;;;;7.98;100.00;67655.06;4979858;28;20046;-85
2022/12/22 08:38:20;;;;;;;202.57;50.88;;;;;;;7.97;100.00;67654.50;4985507;28;20618;-84
2022/12/22 08:40:47;;;;;;;204.55;51.50;;;;;;;7.94;100.00;67651.09;4980901;28;20050;-84
2022/12/22 08:43:13;;;;;;;242.48;59.22;;;;;;;7.94;100.00;67651.09;4990475;28;20042;-85
2022/12/22 08:45:41;;;;;;;229.30;60.67;;;;;;;7.93;100.00;67649.97;4989119;28;20394;-83
2022/12/22 08:48:06;;;;;;;189.35;47.47;;;;;;;;;;4994693;28;20065;-84
2022/12/22 08:50:31;;;;;;;205.80;53.13;;;;;;;;;;4988443;28;20676;-85
2022/12/22 08:53:04;;;;;;;152.63;47.28;;;;;;;7.84;100.00;67640.34;4994020;28;20042;-84
2022/12/22 08:55:30;;;;;;;131.90;32.15;;;;;;;7.83;100.00;67638.66;4987876;28;20053;-85
2022/12/22 08:57:56;;;;;;;152.57;41.50;;;;;;;7.82;100.00;67638.06;4993512;28;20039;-85
2022/12/22 09:00:21;;;;;;;146.20;38.35;;;;;;;7.84;100.00;67637.13;4999098;28;20062;-85
2022/12/22 09:02:47;;;;;;;114.20;38.35;;;;;;;7.84;100.00;67639.78;5001984;28;20046;-84
2022/12/22 09:05:12;;;;;;;119.85;41.42;;;;;;;7.85;100.00;67640.91;4991914;28;20046;-85
2022/12/22 09:07:38;;;;;;;111.32;40.45;;;;;;;7.87;100.00;67640.50;4998531;28;20046;-85
2022/12/22 09:10:03;;;;;;;115.30;37.17;;;;;;;7.87;100.00;67649.03;4996497;28;20117;-83
2022/12/22 09:12:29;;;;;;;113.15;40.50;;;;;;;7.88;100.00;67644.28;4985607;28;20089;-85
2022/12/22 09:14:54;;;;;;;111.20;38.92;;;;;;;7.88;100.00;67644.88;4991328;28;20666;-86
2022/12/22 09:17:20;;;;;;;112.40;43.63;;;;;;;7.88;100.00;67642.22;4990658;28;20418;-83
2022/12/22 09:19:45;;;;;;;113.95;43.15;;;;;;;7.91;100.00;67648.28;4981831;28;20422;-84
2022/12/22 09:22:10;;;;;;;115.63;43.03;;;;;;;7.98;100.00;67652.41;4977288;28;20050;-84
2022/12/22 09:24:36;;;;;;;119.38;38.65;;;;;;;7.99;100.00;67656.19;4979800;28;20070;-83
2022/12/22 09:27:02;;;;;;;119.97;46.00;;;;;;;8.04;100.00;67661.84;4973772;28;20705;-83
2022/12/22 09:29:28;;;;;;;106.13;39.38;;;;;;;8.03;100.00;67655.97;4988994;28;20045;-84
2022/12/22 09:31:53;;;;;;;116.80;40.85;;;;;;;8.07;100.00;67665.25;4989654;28;20047;-85
2022/12/22 09:34:18;;;;;;;115.13;42.38;;;;;;;8.09;100.00;67667.50;4983412;28;20034;-84
2022/12/22 09:36:44;;;;;;;107.95;40.63;;;;;;;8.08;100.00;67666.38;5004343;28;20038;-85
2022/12/22 09:39:10;;;;;;;112.95;36.13;;;;;;;8.06;100.00;67664.13;5015717;28;20091;-84
2022/12/22 09:41:48;;;;;;;108.18;38.65;;;;;;;8.08;100.00;67666.38;5012178;28;20034;-85
2022/12/22 09:44:24;;;;;;;107.10;39.38;;;;;;;;;;5001309;28;20033;-84
2022/12/22 09:46:52;;;;;;;113.57;37.63;;;;;;;8.06;100.00;67662.03;5002027;28;20067;-85
2022/12/22 09:49:19;;;;;;;105.40;34.13;;;;;;;8.05;100.00;67668.28;4992849;28;20043;-85
2022/12/22 09:51:54;;;;;;;105.30;35.75;;;;;;;8.04;100.00;67656.56;4983794;28;20078;-85
2022/12/22 09:54:21;;;;;;;100.60;36.00;;;;;;;8.03;100.00;67660.72;4973143;28;20536;-85
2022/12/22 09:56:47;;;;;;;109.75;42.45;;;;;;;8.02;100.00;67664.88;4982409;28;20042;-84
2022/12/22 09:59:13;;;;;;;101.00;34.28;;;;;;;;;;4984725;28;20597;-86
2022/12/22 10:02:03;;;;;;;101.85;36.90;;;;;;;8.01;100.00;67659.00;4985269;28;20690;-84
2022/12/22 10:04:50;;;;;;;109.70;41.90;;;;;;;8.01;100.00;67656.38;4989302;28;20042;-83
2022/12/22 10:07:37;;;;;;;101.75;35.80;;;;;;;8.01;100.00;67655.81;4980976;28;20038;-84
2022/12/22 10:10:18;;;;;;;109.22;43.78;;;;;;;;;;4987897;28;20110;-84
2022/12/22 10:12:44;;;;;;;96.47;30.80;;;;;;;8.02;100.00;67659.56;4974225;28;20047;-85
2022/12/22 10:15:11;;;;;;;106.97;39.28;;;;;;;8.06;100.00;67664.13;4984658;28;20050;-84
2022/12/22 10:17:37;;;;;;;101.75;31.70;;;;;;;8.07;100.00;67665.25;4981355;28;20034;-86
2022/12/22 10:20:05;;;;;;;103.35;39.50;;;;;;;8.07;100.00;67665.25;4983704;28;20135;-84
2022/12/22 10:22:36;;;;;;;99.57;35.33;;;;;;;8.05;100.00;67668.28;4979520;28;20058;-84
2022/12/22 10:25:04;;;;;;;101.03;44.38;;;;;;;8.02;100.00;67657.50;4985451;28;20092;-84
2022/12/22 10:27:33;;;;;;;94.50;34.45;;;;;;;8.04;100.00;67659.75;4983799;28;20050;-84
2022/12/22 10:30:20;;;;;;;103.90;47.73;;;;;;;8.05;100.00;67663.53;4988482;28;20038;-83
2022/12/22 10:33:08;;;;;;;105.88;41.80;;;;;;;8.04;100.00;67659.19;4972163;28;20126;-84
2022/12/22 10:35:56;;;;;;;101.13;47.78;;;;;;;8.04;100.00;67662.41;4984378;28;20122;-84
2022/12/22 10:38:25;;;;;;;99.32;37.38;;;;;;;8.03;100.00;67661.28;4976330;28;20554;-83
2022/12/22 10:40:55;;;;;;;94.13;36.65;;;;;;;8.02;100.00;67656.94;4970208;28;20077;-85
2022/12/22 10:43:28;;;;;;;102.00;35.50;;;;;;;8.02;100.00;67660.13;4988448;28;20132;-84
2022/12/22 10:45:57;;;;;;;99.88;41.58;;;;;;;8.03;100.00;67661.28;5004176;28;20050;-84
2022/12/22 10:48:34;;;;;;;101.57;41.83;;;;;;;8.03;100.00;67661.28;4992584;28;20415;-85
2022/12/22 10:51:03;;;;;;;101.05;42.05;;;;;;;8.03;100.00;67660.72;4999937;28;20046;-84
2022/12/22 10:53:48;;;;;;;97.35;46.22;;;;;;;8.03;100.00;67660.72;4985958;28;20058;-84
2022/12/22 10:56:26;;;;;;;94.78;41.53;;;;;;;7.99;100.00;67656.75;4990427;28;20117;-84
2022/12/22 10:58:53;;;;;;;93.63;42.67;;;;;;;7.98;100.00;67655.06;4985361;28;20688;-85
2022/12/22 11:01:24;;;;;;;85.68;43.00;;;;;;;7.97;100.00;67654.50;4988243;28;20069;-84
2022/12/22 11:03:50;;;;;;;93.65;38.65;;;;;;;8.00;100.00;67657.91;4981141;28;20047;-83
2022/12/22 11:06:15;;;;;;;93.28;36.60;;;;;;;7.96;100.00;67652.78;4984184;28;20049;-84
2022/12/22 11:08:41;;;;;;;87.90;39.90;;;;;;;7.99;100.00;67656.19;4992464;28;20041;-84
2022/12/22 11:11:13;;;;;;;75.05;30.45;;;;;;;8.04;100.00;67662.41;4986689;28;20273;-84
2022/12/22 11:13:56;;;;;;;83.53;38.25;;;;;;;8.13;100.00;67672.03;4972568;28;20478;-84
2022/12/22 11:16:50;;;;;;;88.05;36.40;;;;;;;8.18;100.00;67677.69;4973991;28;20046;-84
2022/12/22 11:19:35;;;;;;;77.20;38.78;;;;;;;8.17;100.00;67681.88;4998900;28;20043;-84
2022/12/22 11:22:16;;;;;;;75.20;36.70;;;;;;;;;;4978789;28;20053;-84
2022/12/22 11:25:01;;;;;;;75.85;32.05;;;;;;;8.16;100.00;67675.44;4994147;28;20046;-85
2022/12/22 11:27:59;;;;;;;65.10;28.83;;;;;;;8.14;100.00;67673.16;4979581;28;20050;-84
2022/12/22 11:30:43;;;;;;;64.47;30.35;;;;;;;8.16;100.00;67672.78;4987583;28;20058;-84
2022/12/22 11:33:30;;;;;;;66.57;34.38;;;;;;;8.21;100.00;67685.84;4966326;28;20502;-85
2022/12/22 11:36:03;;;;;;;70.68;35.67;;;;;;;8.21;100.00;67677.88;4987042;28;20114;-84
2022/12/22 11:38:47;;;;;;;70.22;32.72;;;;;;;8.28;100.00;67685.81;4987943;28;20703;-85
2022/12/22 11:41:37;;;;;;;63.78;27.55;;;;;;;8.32;100.00;67693.56;5010624;28;20053;-84
2022/12/22 11:44:33;;;;;;;64.75;33.55;;;;;;;8.38;100.00;67694.47;5012834;28;20050;-84
2022/12/22 11:47:11;;;;;;;65.75;31.50;;;;;;;;;;4994597;28;20046;-85
2022/12/22 11:49:43;;;;;;;46.78;24.02;;;;;;;8.45;100.00;67702.44;4972167;28;20070;-84
2022/12/22 11:52:25;;;;;;;52.63;25.48;;;;;;;8.47;100.00;67710.00;4983949;28;20133;-85
2022/12/22 11:55:12;;;;;;;51.58;24.08;;;;;;;8.48;100.00;67705.25;4972649;28;20042;-84
2022/12/22 11:57:56;;;;;;;45.50;22.55;;;;;;;8.58;100.00;67716.59;4982900;28;20078;-85
2022/12/22 12:00:21;;;;;;;41.42;21.88;;;;;;;8.54;100.00;67717.91;4992812;28;20046;-85
2022/12/22 12:03:15;;;;;;;42.83;20.85;;;;;;;8.58;100.00;67722.47;4993983;28;20034;-84
2022/12/22 12:06:02;;;;;;;34.35;16.90;;;;;;;8.63;100.00;67732.88;4980829;28;20047;-84
2022/12/22 12:08:42;;;;;;;33.45;16.65;;;;;;;8.72;100.00;67735.09;4990059;28;20046;-85
2022/12/22 12:11:46;;;;;;;27.73;15.60;;;;;;;8.70;100.00;67730.19;4988715;28;20076;-84
2022/12/22 12:14:26;;;;;;;31.38;16.85;;;;;;;8.80;100.00;67743.59;4995693;28;20054;-84
2022/12/22 12:17:24;;;;;;;28.10;15.27;;;;;;;8.91;100.00;67758.16;4988139;28;20621;-84
2022/12/22 12:20:27;;;;;;;27.42;16.80;;;;;;;9.07;100.00;67776.28;4989580;28;20664;-84
2022/12/22 12:23:11;;;;;;;26.25;15.05;;;;;;;9.00;100.00;67763.03;4981541;28;20049;-84
2022/12/22 12:25:42;;;;;;;26.83;14.48;;;;;;;8.98;100.00;67766.66;4984093;28;20039;-85
2022/12/22 12:28:12;;;;;;;22.25;13.35;;;;;;;9.10;100.00;67779.69;4989077;28;20043;-84
2022/12/22 12:30:48;;;;;;;;;;;;;;;9.07;100.00;67773.63;4999185;28;20093;-85
2022/12/22 12:33:16;;;;;;;23.55;11.85;;;;;;;;;;4990375;28;19920;-85
2022/12/22 12:35:48;;;;;;;20.10;9.40;;;;;;;;;;5002009;28;20473;-85
2022/12/22 12:38:25;;;;;;;18.38;9.43;;;;;;;9.13;100.00;67782.53;5004295;28;20038;-84
2022/12/22 12:40:58;;;;;;;17.70;9.52;;;;;;;9.17;100.00;67784.38;5012538;28;20065;-85
2022/12/22 12:43:24;;;;;;;19.90;8.18;;;;;;;9.12;100.00;67781.38;5009269;28;20038;-84
2022/12/22 12:45:50;;;;;;;19.92;9.55;;;;;;;9.31;100.00;67802.34;5016305;28;20197;-84
2022/12/22 12:48:22;;;;;;;20.77;8.75;;;;;;;;;;5013722;28;20070;-85
2022/12/22 12:50:55;;;;;;;19.83;10.32;;;;;;;9.30;100.00;67806.53;4976507;28;20046;-84
2022/12/22 12:53:28;;;;;;;23.33;10.15;;;;;;;9.42;100.00;67814.81;4985650;28;20186;-85
2022/12/22 12:55:55;;;;;;;18.95;10.27;;;;;;;9.49;100.00;67820.09;4973132;28;20129;-85
2022/12/22 12:58:38;;;;;;;19.60;10.27;;;;;;;;;;4977444;28;20046;-84
2022/12/22 13:01:31;;;;;;;21.13;10.77;;;;;;;9.44;100.00;67817.09;5012973;28;20144;-85
2022/12/22 13:03:56;;;;;;;21.23;9.85;;;;;;;9.52;100.00;67825.59;4980269;28;20060;-84
2022/12/22 13:06:52;;;;;;;20.67;9.70;;;;;;;9.52;100.00;67825.59;4982912;28;20042;-84
2022/12/22 13:09:28;;;;;;;17.63;7.60;;;;;;;9.35;100.00;67804.81;4997407;28;20111;-85
2022/12/22 13:11:55;;;;;;;22.17;9.82;;;;;;;9.35;100.00;67804.22;4981846;28;20073;-86
2022/12/22 13:14:55;;;;;;;22.05;10.55;;;;;;;9.24;100.00;67795.00;4994081;28;20046;-84
2022/12/22 13:17:48;;;;;;;20.75;11.38;;;;;;;9.21;100.00;67789.50;4984565;28;20054;-85
2022/12/22 13:20:19;;;;;;;22.35;10.15;;;;;;;9.16;100.00;67786.47;4991317;28;20050;-85
2022/12/22 13:22:44;;;;;;;19.83;8.40;;;;;;;;;;4986679;28;20042;-84
2022/12/22 13:25:15;;;;;;;21.48;11.13;;;;;;;9.00;100.00;67768.34;4979625;28;20454;-84
2022/12/22 13:27:40;;;;;;;21.00;8.07;;;;;;;8.94;100.00;67761.53;4980983;28;20046;-84
2022/12/22 13:30:13;;;;;;;18.40;10.63;;;;;;;9.00;100.00;67765.69;4985467;28;20043;-84
2022/12/22 13:32:39;;;;;;;19.45;9.85;;;;;;;;;;4982797;28;20047;-84
2022/12/22 13:35:11;;;;;;;21.92;10.88;;;;;;;;;;4981614;28;20050;-84
2022/12/22 13:37:44;;;;;;;18.25;9.93;;;;;;;8.88;100.00;67755.31;4990378;28;20046;-84
2022/12/22 13:40:11;;;;;;;22.08;10.77;;;;;;;;;;4984563;28;20098;-85
2022/12/22 13:42:42;;;;;;;20.92;9.70;;;;;;;8.84;100.00;67745.47;4976785;28;20647;-83
2022/12/22 13:45:27;;;;;;;19.98;9.95;;;;;;;8.77;100.00;67748.16;4985210;28;20197;-83
2022/12/22 13:47:53;;;;;;;21.55;11.98;;;;;;;8.84;100.00;67755.53;4981305;28;20072;-84
2022/12/22 13:50:20;;;;;;;20.98;11.43;;;;;;;;;;4992402;28;20125;-83
2022/12/22 13:52:46;;;;;;;20.17;11.75;;;;;;;;;;5010395;28;20042;-83
2022/12/22 13:55:17;;;;;;;21.75;10.82;;;;;;;8.70;100.00;67732.84;5005098;28;20049;-84
2022/12/22 13:57:42;;;;;;;23.85;14.02;;;;;;;8.68;100.00;67733.22;4980371;28;20118;-84
2022/12/22 14:00:24;;;;;;;25.83;13.07;;;;;;;8.70;100.00;67735.50;4980623;28;20133;-83
2022/12/22 14:02:50;;;;;;;23.80;12.98;;;;;;;8.72;100.00;67737.75;4983318;28;20056;-84
2022/12/22 14:05:16;;;;;;;30.80;16.42;;;;;;;8.68;100.00;67730.00;4985328;28;20129;-83
2022/12/22 14:08:04;;;;;;;28.23;14.48;;;;;;;;;;4979102;28;20450;-84
2022/12/22 14:10:43;;;;;;;31.10;14.73;;;;;;;8.61;100.00;67722.66;4987516;28;20050;-83
2022/12/22 14:13:18;;;;;;;24.98;13.70;;;;;;;8.59;100.00;67728.91;4988157;28;20092;-84
2022/12/22 14:15:44;;;;;;;28.10;16.20;;;;;;;8.56;100.00;67719.63;4991604;28;20066;-84
2022/12/22 14:18:20;;;;;;;27.98;17.10;;;;;;;8.52;100.00;67715.09;4985283;28;20126;-84
2022/12/22 14:20:47;;;;;;;27.55;19.30;;;;;;;8.52;100.00;67715.09;4986122;28;20096;-83
2022/12/22 14:23:17;;;;;;;26.75;14.52;;;;;;;;;;4989530;28;20065;-83
2022/12/22 14:25:45;;;;;;;29.05;18.00;;;;;;;8.54;100.00;67717.34;4984312;28;20114;-84
2022/12/22 14:28:25;;;;;;;29.50;16.40;;;;;;;8.52;100.00;67715.09;4982601;28;20050;-84
2022/12/22 14:30:57;;;;;;;29.50;20.20;;;;;;;8.53;100.00;67713.56;4979423;28;20043;-84
2022/12/22 14:33:22;;;;;;;28.17;17.98;;;;;;;8.50;100.00;67710.19;4985298;28;20125;-84
2022/12/22 14:35:48;;;;;;;27.83;18.25;;;;;;;8.46;100.00;67708.28;4978615;28;20133;-85
2022/12/22 14:38:23;;;;;;;27.92;17.40;;;;;;;8.46;100.00;67708.88;4988077;28;20125;-85
2022/12/22 14:40:50;;;;;;;29.42;18.75;;;;;;;8.45;100.00;67707.16;4983197;28;20046;-84
2022/12/22 14:43:18;;;;;;;30.30;18.73;;;;;;;8.44;100.00;67706.03;4980220;28;20133;-84
2022/12/22 14:45:46;;;;;;;31.67;21.10;;;;;;;8.42;100.00;67704.34;4984942;28;20049;-84
2022/12/22 14:48:23;;;;;;;29.52;19.50;;;;;;;8.39;100.00;67698.28;4984202;28;20039;-85
2022/12/22 14:50:50;;;;;;;31.35;18.35;;;;;;;8.35;100.00;67693.75;4981602;28;20482;-84
2022/12/22 14:53:24;;;;;;;29.20;18.75;;;;;;;8.34;100.00;67695.84;4984666;28;20493;-84
2022/12/22 14:55:52;;;;;;;32.60;20.95;;;;;;;8.35;100.00;67696.41;4982794;28;20049;-84
2022/12/22 14:58:19;;;;;;;25.35;15.15;;;;;;;8.30;100.00;67691.28;4990030;28;20053;-84
2022/12/22 15:00:47;;;;;;;26.75;16.55;;;;;;;8.29;100.00;67690.16;4989458;28;20052;-85
2022/12/22 15:03:31;;;;;;;28.88;18.85;;;;;;;;;;4989507;28;20402;-84
2022/12/22 15:06:30;;;;;;;30.17;16.63;;;;;;;8.28;100.00;67689.00;4986692;28;20039;-84
2022/12/22 15:09:22;;;;;;;28.45;17.35;;;;;;;8.25;100.00;67682.97;4989984;28;20525;-84
2022/12/22 15:12:04;;;;;;;27.77;17.75;;;;;;;8.26;100.00;67686.22;4990672;28;20723;-85
2022/12/22 15:14:33;;;;;;;32.08;20.05;;;;;;;8.20;100.00;67679.97;4991540;28;20133;-85
2022/12/22 15:17:00;;;;;;;30.77;19.88;;;;;;;8.19;100.00;67678.81;4986518;28;20105;-84
2022/12/22 15:19:30;;;;;;;33.92;21.27;;;;;;;8.20;100.00;67677.31;4980897;28;20043;-84
2022/12/22 15:21:55;;;;;;;35.83;19.88;;;;;;;8.22;100.00;67682.22;4990622;28;20038;-84
2022/12/22 15:24:21;;;;;;;30.00;20.40;;;;;;;8.18;100.00;67672.41;4990043;28;20298;-84
2022/12/22 15:26:46;;;;;;;31.83;17.70;;;;;;;8.17;100.00;67673.94;4981642;28;20041;-85